EZY18CE EDDB-EGGW
Flight info
| Callsign | EZY18CE |
|---|---|
| Flight time | 1h 28m |
| Altitude | 38000 |
| Route | SUKIP3B SUKIP Y206 BUREL P203 HLZ L980 ROBEG DCT AMSAN DCT RKN DCT NIGUG DCT NOGRO M40 RINIS |
| Aircraft | A320/M-SDE3FGHIRWY/LB1 |
Departure
| Time | 2026-05-07 14:08 |
|---|---|
| Airport | Berlin Brandenburg Airport (EDDB) |
Arrival
| Time | 2026-05-07 15:36 |
|---|---|
| Airport | London Luton Airport (EGGW) |
| Time | Latitude | Longitude | Altitude | Speed | Heading |
|---|---|---|---|---|---|
| 2026-05-07 13:43 | 52.36471 | 13.50570 | 159 ft | 0 kts | 69° |
| 2026-05-07 13:49 | 52.36467 | 13.50555 | 158 ft | 2 kts | 70° |
| 2026-05-07 13:49 | 52.36461 | 13.50530 | 158 ft | 2 kts | 69° |
| 2026-05-07 13:49 | 52.36455 | 13.50505 | 158 ft | 2 kts | 68° |
| 2026-05-07 13:50 | 52.36449 | 13.50481 | 158 ft | 2 kts | 67° |
| 2026-05-07 13:50 | 52.36443 | 13.50456 | 158 ft | 2 kts | 63° |
| 2026-05-07 13:50 | 52.36431 | 13.50426 | 159 ft | 2 kts | 10° |
| 2026-05-07 13:50 | 52.36420 | 13.50425 | 158 ft | 2 kts | 356° |
| 2026-05-07 13:51 | 52.36403 | 13.50429 | 158 ft | 2 kts | 342° |
| 2026-05-07 13:51 | 52.36389 | 13.50437 | 158 ft | 1 kts | 339° |
| 2026-05-07 13:51 | 52.36385 | 13.50439 | 159 ft | 0 kts | 340° |
| 2026-05-07 13:58 | 52.36393 | 13.50435 | 159 ft | 3 kts | 340° |
| 2026-05-07 13:58 | 52.36400 | 13.50420 | 159 ft | 0 kts | 277° |
| 2026-05-07 13:58 | 52.36393 | 13.50396 | 159 ft | 4 kts | 231° |
| 2026-05-07 13:58 | 52.36358 | 13.50380 | 159 ft | 6 kts | 186° |
| 2026-05-07 13:59 | 52.36313 | 13.50401 | 159 ft | 8 kts | 168° |
| 2026-05-07 13:59 | 52.36247 | 13.50379 | 159 ft | 11 kts | 183° |
| 2026-05-07 13:59 | 52.36168 | 13.50420 | 158 ft | 11 kts | 156° |
| 2026-05-07 13:59 | 52.36103 | 13.50459 | 158 ft | 11 kts | 161° |
| 2026-05-07 14:00 | 52.36026 | 13.50506 | 158 ft | 13 kts | 159° |
| 2026-05-07 14:00 | 52.35949 | 13.50557 | 158 ft | 12 kts | 158° |
| 2026-05-07 14:00 | 52.35863 | 13.50611 | 158 ft | 14 kts | 160° |
| 2026-05-07 14:00 | 52.35782 | 13.50624 | 158 ft | 10 kts | 209° |
| 2026-05-07 14:01 | 52.35756 | 13.50546 | 158 ft | 7 kts | 249° |
| 2026-05-07 14:01 | 52.35734 | 13.50455 | 158 ft | 10 kts | 247° |
| 2026-05-07 14:01 | 52.35706 | 13.50340 | 158 ft | 12 kts | 250° |
| 2026-05-07 14:01 | 52.35674 | 13.50199 | 158 ft | 14 kts | 247° |
| 2026-05-07 14:02 | 52.35639 | 13.50059 | 158 ft | 12 kts | 248° |
| 2026-05-07 14:02 | 52.35608 | 13.49925 | 158 ft | 13 kts | 249° |
| 2026-05-07 14:02 | 52.35580 | 13.49806 | 158 ft | 9 kts | 248° |
| 2026-05-07 14:02 | 52.35559 | 13.49721 | 158 ft | 8 kts | 249° |
| 2026-05-07 14:03 | 52.35529 | 13.49590 | 158 ft | 16 kts | 249° |
| 2026-05-07 14:03 | 52.35484 | 13.49400 | 158 ft | 17 kts | 247° |
| 2026-05-07 14:03 | 52.35446 | 13.49245 | 158 ft | 13 kts | 248° |
| 2026-05-07 14:03 | 52.35418 | 13.49128 | 158 ft | 9 kts | 250° |
| 2026-05-07 14:04 | 52.35394 | 13.49020 | 158 ft | 14 kts | 250° |
| 2026-05-07 14:04 | 52.35347 | 13.48826 | 158 ft | 21 kts | 248° |
| 2026-05-07 14:04 | 52.35293 | 13.48616 | 158 ft | 19 kts | 248° |
| 2026-05-07 14:04 | 52.35220 | 13.48482 | 158 ft | 16 kts | 172° |
| 2026-05-07 14:05 | 52.35123 | 13.48553 | 158 ft | 13 kts | 143° |
| 2026-05-07 14:05 | 52.35107 | 13.48582 | 157 ft | 4 kts | 119° |
| 2026-05-07 14:05 | 52.35099 | 13.48664 | 157 ft | 8 kts | 99° |
| 2026-05-07 14:05 | 52.35098 | 13.48675 | 157 ft | 0 kts | 99° |
| 2026-05-07 14:06 | 52.35097 | 13.48688 | 156 ft | 5 kts | 99° |
| 2026-05-07 14:06 | 52.35086 | 13.48797 | 155 ft | 16 kts | 98° |
| 2026-05-07 14:06 | 52.35078 | 13.48988 | 154 ft | 17 kts | 91° |
| 2026-05-07 14:07 | 52.35098 | 13.49172 | 154 ft | 19 kts | 69° |
| 2026-05-07 14:07 | 52.35199 | 13.49599 | 155 ft | 72 kts | 69° |
| 2026-05-07 14:07 | 52.35453 | 13.50673 | 157 ft | 128 kts | 69° |
| 2026-05-07 14:07 | 52.35828 | 13.52263 | 271 ft | 162 kts | 69° |
| 2026-05-07 14:08 | 52.35958 | 13.54046 | 952 ft | 165 kts | 109° |
| 2026-05-07 14:08 | 52.35214 | 13.55513 | 1579 ft | 178 kts | 136° |
| 2026-05-07 14:08 | 52.34019 | 13.56452 | 1911 ft | 208 kts | 177° |
| 2026-05-07 14:08 | 52.32605 | 13.55868 | 2638 ft | 218 kts | 206° |
| 2026-05-07 14:09 | 52.31277 | 13.54378 | 3071 ft | 243 kts | 218° |
| 2026-05-07 14:09 | 52.29889 | 13.52579 | 3562 ft | 266 kts | 219° |
| 2026-05-07 14:09 | 52.28429 | 13.50647 | 4406 ft | 271 kts | 219° |
| 2026-05-07 14:09 | 52.27099 | 13.48461 | 5347 ft | 274 kts | 237° |
| 2026-05-07 14:10 | 52.26375 | 13.45587 | 6207 ft | 278 kts | 261° |
| 2026-05-07 14:10 | 52.26290 | 13.42418 | 7031 ft | 281 kts | 272° |
| 2026-05-07 14:10 | 52.26299 | 13.39201 | 7722 ft | 286 kts | 271° |
| 2026-05-07 14:10 | 52.26304 | 13.35942 | 8202 ft | 287 kts | 271° |
| 2026-05-07 14:11 | 52.26306 | 13.32672 | 9030 ft | 290 kts | 271° |
| 2026-05-07 14:11 | 52.26307 | 13.29362 | 9899 ft | 293 kts | 270° |
| 2026-05-07 14:11 | 52.26304 | 13.26024 | 10719 ft | 295 kts | 269° |
| 2026-05-07 14:11 | 52.26058 | 13.22684 | 11438 ft | 300 kts | 255° |
| 2026-05-07 14:12 | 52.25307 | 13.19423 | 11814 ft | 318 kts | 241° |
| 2026-05-07 14:12 | 52.24147 | 13.16265 | 12114 ft | 336 kts | 238° |
| 2026-05-07 14:12 | 52.22909 | 13.12974 | 12794 ft | 342 kts | 238° |
| 2026-05-07 14:12 | 52.21659 | 13.09653 | 13529 ft | 346 kts | 238° |
| 2026-05-07 14:13 | 52.20397 | 13.06298 | 14238 ft | 349 kts | 238° |
| 2026-05-07 14:13 | 52.19123 | 13.02899 | 14932 ft | 352 kts | 238° |
| 2026-05-07 14:13 | 52.17842 | 12.99468 | 15625 ft | 356 kts | 238° |
| 2026-05-07 14:13 | 52.16663 | 12.95909 | 16304 ft | 359 kts | 247° |
| 2026-05-07 14:14 | 52.15895 | 12.92026 | 16966 ft | 362 kts | 257° |
| 2026-05-07 14:14 | 52.15345 | 12.88004 | 17627 ft | 366 kts | 258° |
| 2026-05-07 14:14 | 52.14779 | 12.83941 | 18274 ft | 369 kts | 258° |
| 2026-05-07 14:14 | 52.14201 | 12.79855 | 18833 ft | 372 kts | 257° |
| 2026-05-07 14:15 | 52.13671 | 12.75723 | 19402 ft | 374 kts | 263° |
| 2026-05-07 14:15 | 52.13638 | 12.71474 | 19996 ft | 376 kts | 277° |
| 2026-05-07 14:15 | 52.14217 | 12.67312 | 20596 ft | 379 kts | 290° |
| 2026-05-07 14:15 | 52.15384 | 12.63471 | 21153 ft | 380 kts | 304° |
| 2026-05-07 14:16 | 52.17086 | 12.60187 | 21703 ft | 381 kts | 317° |
| 2026-05-07 14:16 | 52.19072 | 12.57284 | 22229 ft | 385 kts | 318° |
| 2026-05-07 14:16 | 52.21066 | 12.54351 | 22752 ft | 388 kts | 318° |
| 2026-05-07 14:16 | 52.23060 | 12.51346 | 23298 ft | 391 kts | 315° |
| 2026-05-07 14:17 | 52.24787 | 12.47903 | 23812 ft | 394 kts | 304° |
| 2026-05-07 14:17 | 52.26103 | 12.43951 | 24246 ft | 398 kts | 293° |
| 2026-05-07 14:17 | 52.26954 | 12.39693 | 24639 ft | 402 kts | 283° |
| 2026-05-07 14:17 | 52.27582 | 12.35221 | 25025 ft | 405 kts | 283° |
| 2026-05-07 14:18 | 52.28213 | 12.30720 | 25419 ft | 408 kts | 283° |
| 2026-05-07 14:18 | 52.28846 | 12.26188 | 25821 ft | 411 kts | 283° |
| 2026-05-07 14:18 | 52.29484 | 12.21620 | 26199 ft | 413 kts | 283° |
| 2026-05-07 14:18 | 52.30125 | 12.17017 | 26571 ft | 416 kts | 283° |
| 2026-05-07 14:19 | 52.30765 | 12.12396 | 26947 ft | 419 kts | 283° |
| 2026-05-07 14:19 | 52.31411 | 12.07737 | 27310 ft | 422 kts | 283° |
| 2026-05-07 14:19 | 52.32062 | 12.03040 | 27642 ft | 425 kts | 283° |
| 2026-05-07 14:19 | 52.32714 | 11.98304 | 27996 ft | 428 kts | 283° |
| 2026-05-07 14:20 | 52.33365 | 11.93543 | 28382 ft | 429 kts | 282° |
| 2026-05-07 14:20 | 52.34014 | 11.88774 | 28773 ft | 430 kts | 282° |
| 2026-05-07 14:20 | 52.34486 | 11.83930 | 29121 ft | 432 kts | 273° |
| 2026-05-07 14:20 | 52.34604 | 11.78996 | 29452 ft | 434 kts | 271° |
| 2026-05-07 14:21 | 52.34702 | 11.74050 | 29780 ft | 436 kts | 271° |
| 2026-05-07 14:21 | 52.34805 | 11.69087 | 30085 ft | 438 kts | 271° |
| 2026-05-07 14:21 | 52.34909 | 11.64134 | 30367 ft | 441 kts | 271° |
| 2026-05-07 14:21 | 52.35012 | 11.59114 | 30642 ft | 443 kts | 271° |
| 2026-05-07 14:22 | 52.35114 | 11.54066 | 30910 ft | 444 kts | 271° |
| 2026-05-07 14:22 | 52.35213 | 11.48996 | 31141 ft | 446 kts | 271° |
| 2026-05-07 14:22 | 52.35311 | 11.43924 | 31416 ft | 446 kts | 271° |
| 2026-05-07 14:22 | 52.35406 | 11.38880 | 31901 ft | 441 kts | 271° |
| 2026-05-07 14:23 | 52.35498 | 11.33870 | 32307 ft | 439 kts | 271° |
| 2026-05-07 14:23 | 52.35590 | 11.28882 | 32643 ft | 438 kts | 271° |
| 2026-05-07 14:23 | 52.35682 | 11.23880 | 32943 ft | 439 kts | 271° |
| 2026-05-07 14:23 | 52.35741 | 11.20578 | 33146 ft | 439 kts | 271° |
| 2026-05-07 14:24 | 52.35826 | 11.15576 | 33434 ft | 440 kts | 271° |
| 2026-05-07 14:24 | 52.35929 | 11.08941 | 33844 ft | 440 kts | 271° |
| 2026-05-07 14:24 | 52.35979 | 11.05563 | 34049 ft | 440 kts | 271° |
| 2026-05-07 14:24 | 52.36051 | 11.00560 | 34310 ft | 440 kts | 271° |
| 2026-05-07 14:25 | 52.36124 | 10.95548 | 34585 ft | 440 kts | 271° |
| 2026-05-07 14:25 | 52.36196 | 10.90556 | 34877 ft | 439 kts | 271° |
| 2026-05-07 14:25 | 52.36264 | 10.85568 | 35160 ft | 438 kts | 271° |
| 2026-05-07 14:25 | 52.36273 | 10.80587 | 35433 ft | 436 kts | 266° |
| 2026-05-07 14:26 | 52.35891 | 10.75664 | 35653 ft | 436 kts | 258° |
| 2026-05-07 14:26 | 52.35301 | 10.70809 | 35850 ft | 436 kts | 258° |
| 2026-05-07 14:26 | 52.34714 | 10.65944 | 36073 ft | 435 kts | 258° |
| 2026-05-07 14:26 | 52.34128 | 10.61096 | 36304 ft | 435 kts | 258° |
| 2026-05-07 14:27 | 52.33538 | 10.56233 | 36497 ft | 435 kts | 258° |
| 2026-05-07 14:27 | 52.32948 | 10.51374 | 36693 ft | 435 kts | 258° |
| 2026-05-07 14:27 | 52.32355 | 10.46514 | 36887 ft | 435 kts | 258° |
| 2026-05-07 14:27 | 52.31769 | 10.41728 | 37101 ft | 435 kts | 258° |
| 2026-05-07 14:28 | 52.31173 | 10.36883 | 37278 ft | 435 kts | 258° |
| 2026-05-07 14:28 | 52.30576 | 10.32033 | 37455 ft | 435 kts | 258° |
| 2026-05-07 14:28 | 52.29974 | 10.27182 | 37647 ft | 435 kts | 258° |
| 2026-05-07 14:28 | 52.29370 | 10.22340 | 37827 ft | 435 kts | 257° |
| 2026-05-07 14:29 | 52.28765 | 10.17504 | 38003 ft | 435 kts | 257° |
| 2026-05-07 14:29 | 52.27550 | 10.07825 | 38089 ft | 433 kts | 257° |
| 2026-05-07 14:30 | 52.26330 | 9.98195 | 38092 ft | 433 kts | 257° |
| 2026-05-07 14:30 | 52.25156 | 9.88554 | 38095 ft | 433 kts | 263° |
| 2026-05-07 14:31 | 52.24844 | 9.78729 | 38095 ft | 434 kts | 266° |
| 2026-05-07 14:31 | 52.24585 | 9.68890 | 38097 ft | 434 kts | 266° |
| 2026-05-07 14:32 | 52.24311 | 9.59049 | 38101 ft | 434 kts | 266° |
| 2026-05-07 14:32 | 52.24031 | 9.49258 | 38092 ft | 435 kts | 266° |
| 2026-05-07 14:33 | 52.23751 | 9.39404 | 38098 ft | 435 kts | 266° |
| 2026-05-07 14:33 | 52.23454 | 9.29556 | 38099 ft | 435 kts | 266° |
| 2026-05-07 14:34 | 52.23154 | 9.19698 | 38100 ft | 435 kts | 266° |
| 2026-05-07 14:34 | 52.22859 | 9.09843 | 38098 ft | 434 kts | 266° |
| 2026-05-07 14:35 | 52.22558 | 9.00007 | 38094 ft | 434 kts | 266° |
| 2026-05-07 14:35 | 52.22239 | 8.90162 | 38097 ft | 434 kts | 266° |
| 2026-05-07 14:36 | 52.21907 | 8.80335 | 38099 ft | 434 kts | 266° |
| 2026-05-07 14:36 | 52.21570 | 8.70505 | 38096 ft | 434 kts | 266° |
| 2026-05-07 14:37 | 52.21227 | 8.60685 | 38095 ft | 433 kts | 266° |
| 2026-05-07 14:37 | 52.20705 | 8.45935 | 38092 ft | 434 kts | 266° |
| 2026-05-07 14:38 | 52.20348 | 8.36169 | 38099 ft | 434 kts | 265° |
| 2026-05-07 14:38 | 52.19978 | 8.26300 | 38097 ft | 433 kts | 265° |
| 2026-05-07 14:39 | 52.19606 | 8.16558 | 38096 ft | 433 kts | 265° |
| 2026-05-07 14:39 | 52.19217 | 8.06738 | 38096 ft | 433 kts | 265° |
| 2026-05-07 14:40 | 52.18826 | 7.96925 | 38097 ft | 434 kts | 265° |
| 2026-05-07 14:40 | 52.18426 | 7.87105 | 38102 ft | 434 kts | 265° |
| 2026-05-07 14:41 | 52.18013 | 7.77293 | 38103 ft | 434 kts | 265° |
| 2026-05-07 14:41 | 52.17593 | 7.67474 | 38100 ft | 434 kts | 265° |
| 2026-05-07 14:42 | 52.17381 | 7.62644 | 37937 ft | 433 kts | 265° |
| 2026-05-07 14:42 | 52.17166 | 7.57755 | 37664 ft | 432 kts | 265° |
| 2026-05-07 14:42 | 52.16950 | 7.52871 | 37402 ft | 432 kts | 265° |
| 2026-05-07 14:42 | 52.16733 | 7.47995 | 37130 ft | 431 kts | 265° |
| 2026-05-07 14:43 | 52.16302 | 7.38255 | 37085 ft | 432 kts | 265° |
| 2026-05-07 14:43 | 52.15856 | 7.28397 | 37066 ft | 441 kts | 265° |
| 2026-05-07 14:44 | 52.15382 | 7.18376 | 37066 ft | 445 kts | 265° |
| 2026-05-07 14:44 | 52.14889 | 7.08265 | 37058 ft | 446 kts | 265° |
| 2026-05-07 14:45 | 52.14407 | 6.98236 | 37060 ft | 446 kts | 265° |
| 2026-05-07 14:45 | 52.13918 | 6.88179 | 37066 ft | 446 kts | 265° |
| 2026-05-07 14:46 | 52.13408 | 6.78033 | 37057 ft | 450 kts | 264° |
| 2026-05-07 14:46 | 52.12875 | 6.67844 | 37057 ft | 451 kts | 264° |
| 2026-05-07 14:47 | 52.12312 | 6.57697 | 37056 ft | 451 kts | 264° |
| 2026-05-07 14:47 | 52.11733 | 6.47528 | 37053 ft | 450 kts | 264° |
| 2026-05-07 14:48 | 52.11151 | 6.37420 | 37050 ft | 451 kts | 264° |
| 2026-05-07 14:48 | 52.10562 | 6.27273 | 37055 ft | 450 kts | 264° |
| 2026-05-07 14:49 | 52.09968 | 6.17140 | 37055 ft | 450 kts | 264° |
| 2026-05-07 14:49 | 52.09367 | 6.07012 | 37057 ft | 450 kts | 264° |
| 2026-05-07 14:50 | 52.08760 | 5.96892 | 37057 ft | 450 kts | 264° |
| 2026-05-07 14:50 | 52.08141 | 5.86768 | 37061 ft | 449 kts | 263° |
| 2026-05-07 14:51 | 52.07509 | 5.76619 | 37057 ft | 449 kts | 263° |
| 2026-05-07 14:51 | 52.06876 | 5.66547 | 37059 ft | 449 kts | 263° |
| 2026-05-07 14:52 | 52.06260 | 5.56502 | 37076 ft | 449 kts | 264° |
| 2026-05-07 14:52 | 52.05896 | 5.46291 | 37076 ft | 449 kts | 266° |
| 2026-05-07 14:53 | 52.05654 | 5.36149 | 37078 ft | 450 kts | 266° |
| 2026-05-07 14:53 | 52.05366 | 5.25998 | 37079 ft | 450 kts | 266° |
| 2026-05-07 14:54 | 52.05022 | 5.15853 | 37081 ft | 450 kts | 266° |
| 2026-05-07 14:54 | 52.04662 | 5.05767 | 37079 ft | 450 kts | 266° |
| 2026-05-07 14:55 | 52.04301 | 4.95614 | 37080 ft | 450 kts | 266° |
| 2026-05-07 14:55 | 52.03935 | 4.85460 | 37081 ft | 450 kts | 265° |
| 2026-05-07 14:56 | 52.03558 | 4.75323 | 37082 ft | 450 kts | 265° |
| 2026-05-07 14:56 | 52.03174 | 4.65184 | 37081 ft | 449 kts | 265° |
| 2026-05-07 14:57 | 52.02786 | 4.55032 | 37084 ft | 450 kts | 265° |
| 2026-05-07 14:57 | 52.02387 | 4.44905 | 37084 ft | 449 kts | 265° |
| 2026-05-07 14:58 | 52.01978 | 4.34791 | 36973 ft | 448 kts | 265° |
| 2026-05-07 14:58 | 52.01770 | 4.29730 | 36555 ft | 448 kts | 265° |
| 2026-05-07 14:58 | 52.01559 | 4.24696 | 36153 ft | 444 kts | 265° |
| 2026-05-07 14:59 | 52.01350 | 4.19773 | 35756 ft | 443 kts | 265° |
| 2026-05-07 14:59 | 52.01136 | 4.14792 | 35367 ft | 442 kts | 265° |
| 2026-05-07 14:59 | 52.00918 | 4.09786 | 34979 ft | 445 kts | 265° |
| 2026-05-07 14:59 | 52.00699 | 4.04763 | 34598 ft | 446 kts | 265° |
| 2026-05-07 15:00 | 52.00479 | 3.99746 | 34221 ft | 446 kts | 265° |
| 2026-05-07 15:00 | 52.00259 | 3.94725 | 33801 ft | 446 kts | 265° |
| 2026-05-07 15:00 | 52.00038 | 3.89703 | 33376 ft | 447 kts | 265° |
| 2026-05-07 15:00 | 51.99815 | 3.84676 | 32931 ft | 447 kts | 265° |
| 2026-05-07 15:01 | 51.99586 | 3.79616 | 32509 ft | 449 kts | 265° |
| 2026-05-07 15:01 | 51.99352 | 3.74542 | 32086 ft | 451 kts | 265° |
| 2026-05-07 15:01 | 51.99115 | 3.69464 | 31672 ft | 451 kts | 265° |
| 2026-05-07 15:01 | 51.98957 | 3.66108 | 31399 ft | 451 kts | 265° |
| 2026-05-07 15:02 | 51.98720 | 3.61038 | 30986 ft | 450 kts | 265° |
| 2026-05-07 15:02 | 51.98479 | 3.55983 | 30586 ft | 450 kts | 265° |
| 2026-05-07 15:02 | 51.98236 | 3.50938 | 30188 ft | 447 kts | 264° |
| 2026-05-07 15:02 | 51.97913 | 3.44301 | 29582 ft | 443 kts | 264° |
| 2026-05-07 15:03 | 51.97751 | 3.40950 | 29276 ft | 441 kts | 265° |
| 2026-05-07 15:03 | 51.97510 | 3.36005 | 28824 ft | 439 kts | 265° |
| 2026-05-07 15:03 | 51.97269 | 3.31079 | 28394 ft | 436 kts | 265° |
| 2026-05-07 15:03 | 51.97025 | 3.26194 | 28117 ft | 434 kts | 264° |
| 2026-05-07 15:04 | 51.96776 | 3.21320 | 27845 ft | 433 kts | 264° |
| 2026-05-07 15:04 | 51.96525 | 3.16456 | 27576 ft | 431 kts | 264° |
| 2026-05-07 15:04 | 51.96251 | 3.11624 | 27306 ft | 429 kts | 264° |
| 2026-05-07 15:04 | 51.95950 | 3.06813 | 27038 ft | 428 kts | 263° |
| 2026-05-07 15:05 | 51.95631 | 3.02030 | 26775 ft | 426 kts | 263° |
| 2026-05-07 15:05 | 51.95309 | 2.97329 | 26521 ft | 425 kts | 263° |
| 2026-05-07 15:05 | 51.94983 | 2.92584 | 26263 ft | 423 kts | 263° |
| 2026-05-07 15:05 | 51.94661 | 2.87840 | 26007 ft | 422 kts | 263° |
| 2026-05-07 15:06 | 51.94345 | 2.83125 | 25758 ft | 420 kts | 263° |
| 2026-05-07 15:06 | 51.94028 | 2.78416 | 25507 ft | 419 kts | 263° |
| 2026-05-07 15:06 | 51.93710 | 2.73725 | 25260 ft | 417 kts | 263° |
| 2026-05-07 15:06 | 51.93390 | 2.69050 | 25014 ft | 416 kts | 263° |
| 2026-05-07 15:07 | 51.93072 | 2.64401 | 24767 ft | 414 kts | 263° |
| 2026-05-07 15:07 | 51.92755 | 2.59764 | 24526 ft | 413 kts | 263° |
| 2026-05-07 15:07 | 51.92437 | 2.55145 | 24286 ft | 411 kts | 263° |
| 2026-05-07 15:07 | 51.92120 | 2.50538 | 24048 ft | 410 kts | 263° |
| 2026-05-07 15:08 | 51.91802 | 2.45962 | 23719 ft | 409 kts | 263° |
| 2026-05-07 15:08 | 51.91483 | 2.41404 | 23125 ft | 405 kts | 263° |
| 2026-05-07 15:08 | 51.91169 | 2.36937 | 22611 ft | 403 kts | 263° |
| 2026-05-07 15:08 | 51.90852 | 2.32441 | 22090 ft | 400 kts | 263° |
| 2026-05-07 15:09 | 51.90620 | 2.27970 | 21676 ft | 398 kts | 266° |
| 2026-05-07 15:09 | 51.90488 | 2.23505 | 21273 ft | 396 kts | 267° |
| 2026-05-07 15:09 | 51.90415 | 2.19052 | 20866 ft | 394 kts | 268° |
| 2026-05-07 15:09 | 51.90359 | 2.14623 | 20462 ft | 392 kts | 268° |
| 2026-05-07 15:10 | 51.90297 | 2.10236 | 20061 ft | 390 kts | 268° |
| 2026-05-07 15:10 | 51.90218 | 2.05858 | 19661 ft | 387 kts | 267° |
| 2026-05-07 15:10 | 51.90122 | 2.01480 | 19262 ft | 385 kts | 267° |
| 2026-05-07 15:10 | 51.90014 | 1.97196 | 18871 ft | 383 kts | 267° |
| 2026-05-07 15:11 | 51.89948 | 1.92894 | 18473 ft | 382 kts | 272° |
| 2026-05-07 15:11 | 51.90473 | 1.88649 | 18037 ft | 381 kts | 289° |
| 2026-05-07 15:11 | 51.91722 | 1.84889 | 17899 ft | 382 kts | 306° |
| 2026-05-07 15:11 | 51.93412 | 1.81552 | 17798 ft | 383 kts | 309° |
| 2026-05-07 15:12 | 51.95104 | 1.78279 | 17692 ft | 383 kts | 309° |
| 2026-05-07 15:12 | 51.96838 | 1.74924 | 17575 ft | 382 kts | 309° |
| 2026-05-07 15:12 | 51.98522 | 1.71661 | 17450 ft | 382 kts | 308° |
| 2026-05-07 15:12 | 52.00229 | 1.68353 | 17329 ft | 381 kts | 309° |
| 2026-05-07 15:13 | 52.01928 | 1.65059 | 17200 ft | 381 kts | 309° |
| 2026-05-07 15:13 | 52.03631 | 1.61754 | 17078 ft | 380 kts | 308° |
| 2026-05-07 15:13 | 52.05325 | 1.58462 | 16954 ft | 379 kts | 309° |
| 2026-05-07 15:13 | 52.07011 | 1.55179 | 16826 ft | 379 kts | 308° |
| 2026-05-07 15:14 | 52.08694 | 1.51887 | 16702 ft | 378 kts | 309° |
| 2026-05-07 15:14 | 52.10379 | 1.48591 | 16573 ft | 377 kts | 308° |
| 2026-05-07 15:14 | 52.12059 | 1.45297 | 16457 ft | 377 kts | 308° |
| 2026-05-07 15:14 | 52.13733 | 1.42015 | 16331 ft | 377 kts | 308° |
| 2026-05-07 15:15 | 52.15319 | 1.38619 | 16203 ft | 375 kts | 299° |
| 2026-05-07 15:15 | 52.16341 | 1.34740 | 16080 ft | 372 kts | 283° |
| 2026-05-07 15:15 | 52.16768 | 1.30607 | 15961 ft | 370 kts | 276° |
| 2026-05-07 15:15 | 52.17097 | 1.26429 | 15839 ft | 371 kts | 276° |
| 2026-05-07 15:16 | 52.17420 | 1.22306 | 15705 ft | 370 kts | 275° |
| 2026-05-07 15:16 | 52.17743 | 1.18145 | 15440 ft | 369 kts | 276° |
| 2026-05-07 15:16 | 52.18066 | 1.14007 | 15189 ft | 368 kts | 276° |
| 2026-05-07 15:16 | 52.18390 | 1.09885 | 14944 ft | 366 kts | 276° |
| 2026-05-07 15:17 | 52.18699 | 1.05762 | 14695 ft | 366 kts | 275° |
| 2026-05-07 15:17 | 52.18808 | 1.01632 | 14489 ft | 364 kts | 266° |
| 2026-05-07 15:17 | 52.18892 | 0.97506 | 14321 ft | 365 kts | 276° |
| 2026-05-07 15:17 | 52.19227 | 0.93402 | 14150 ft | 365 kts | 276° |
| 2026-05-07 15:18 | 52.19552 | 0.89316 | 13989 ft | 364 kts | 276° |
| 2026-05-07 15:18 | 52.19879 | 0.85223 | 13839 ft | 364 kts | 276° |
| 2026-05-07 15:18 | 52.20205 | 0.81158 | 13672 ft | 363 kts | 276° |
| 2026-05-07 15:18 | 52.20535 | 0.77061 | 13509 ft | 362 kts | 276° |
| 2026-05-07 15:19 | 52.20864 | 0.72990 | 13351 ft | 361 kts | 276° |
| 2026-05-07 15:19 | 52.21191 | 0.68936 | 13189 ft | 360 kts | 276° |
| 2026-05-07 15:19 | 52.21519 | 0.64880 | 13030 ft | 360 kts | 276° |
| 2026-05-07 15:19 | 52.21843 | 0.60851 | 12873 ft | 359 kts | 276° |
| 2026-05-07 15:20 | 52.22167 | 0.56817 | 12702 ft | 358 kts | 275° |
| 2026-05-07 15:20 | 52.22485 | 0.52789 | 12548 ft | 357 kts | 276° |
| 2026-05-07 15:20 | 52.22800 | 0.48777 | 12397 ft | 356 kts | 276° |
| 2026-05-07 15:20 | 52.23115 | 0.44771 | 12241 ft | 355 kts | 275° |
| 2026-05-07 15:21 | 52.23430 | 0.40773 | 12090 ft | 355 kts | 276° |
| 2026-05-07 15:21 | 52.23741 | 0.36786 | 11940 ft | 354 kts | 276° |
| 2026-05-07 15:21 | 52.24048 | 0.32811 | 11792 ft | 353 kts | 276° |
| 2026-05-07 15:21 | 52.24350 | 0.28841 | 11632 ft | 352 kts | 275° |
| 2026-05-07 15:22 | 52.24649 | 0.24888 | 11485 ft | 351 kts | 275° |
| 2026-05-07 15:22 | 52.24948 | 0.20941 | 11335 ft | 350 kts | 276° |
| 2026-05-07 15:22 | 52.25247 | 0.17000 | 11179 ft | 349 kts | 275° |
| 2026-05-07 15:22 | 52.25530 | 0.13066 | 10934 ft | 348 kts | 275° |
| 2026-05-07 15:23 | 52.25799 | 0.09149 | 10551 ft | 347 kts | 275° |
| 2026-05-07 15:23 | 52.26059 | 0.05305 | 10068 ft | 343 kts | 274° |
| 2026-05-07 15:23 | 52.26321 | 0.01449 | 9780 ft | 339 kts | 275° |
| 2026-05-07 15:23 | 52.26357 | -0.02397 | 9650 ft | 338 kts | 257° |
| 2026-05-07 15:24 | 52.25414 | -0.05845 | 9461 ft | 335 kts | 231° |
| 2026-05-07 15:24 | 52.23652 | -0.08236 | 8927 ft | 330 kts | 208° |
| 2026-05-07 15:24 | 52.21591 | -0.09859 | 8479 ft | 328 kts | 202° |
| 2026-05-07 15:24 | 52.19475 | -0.11222 | 8016 ft | 326 kts | 200° |
| 2026-05-07 15:25 | 52.17353 | -0.12493 | 7574 ft | 323 kts | 200° |
| 2026-05-07 15:25 | 52.15247 | -0.13771 | 7131 ft | 321 kts | 200° |
| 2026-05-07 15:25 | 52.13166 | -0.15089 | 6685 ft | 319 kts | 201° |
| 2026-05-07 15:25 | 52.11125 | -0.16465 | 6267 ft | 311 kts | 206° |
| 2026-05-07 15:26 | 52.09485 | -0.18448 | 6101 ft | 282 kts | 226° |
| 2026-05-07 15:26 | 52.08258 | -0.20696 | 5971 ft | 256 kts | 227° |
| 2026-05-07 15:26 | 52.07105 | -0.22803 | 5679 ft | 239 kts | 227° |
| 2026-05-07 15:26 | 52.06009 | -0.24794 | 5211 ft | 233 kts | 227° |
| 2026-05-07 15:27 | 52.04949 | -0.26712 | 5008 ft | 229 kts | 227° |
| 2026-05-07 15:27 | 52.03882 | -0.28641 | 5006 ft | 229 kts | 228° |
| 2026-05-07 15:27 | 52.02823 | -0.30562 | 5007 ft | 229 kts | 228° |
| 2026-05-07 15:27 | 52.01764 | -0.32481 | 5008 ft | 228 kts | 228° |
| 2026-05-07 15:28 | 52.00706 | -0.34402 | 5010 ft | 228 kts | 228° |
| 2026-05-07 15:28 | 51.99787 | -0.36487 | 5008 ft | 228 kts | 242° |
| 2026-05-07 15:28 | 51.99224 | -0.38891 | 5009 ft | 228 kts | 253° |
| 2026-05-07 15:28 | 51.98776 | -0.41363 | 4962 ft | 227 kts | 253° |
| 2026-05-07 15:29 | 51.98312 | -0.43803 | 4601 ft | 226 kts | 248° |
| 2026-05-07 15:29 | 51.97569 | -0.46041 | 4245 ft | 225 kts | 233° |
| 2026-05-07 15:29 | 51.96600 | -0.48034 | 3854 ft | 225 kts | 231° |
| 2026-05-07 15:29 | 51.95632 | -0.50019 | 3534 ft | 223 kts | 231° |
| 2026-05-07 15:30 | 51.94671 | -0.51996 | 3183 ft | 223 kts | 231° |
| 2026-05-07 15:30 | 51.93718 | -0.53955 | 3020 ft | 219 kts | 231° |
| 2026-05-07 15:30 | 51.92805 | -0.55828 | 3006 ft | 204 kts | 231° |
| 2026-05-07 15:30 | 51.91961 | -0.57563 | 3003 ft | 194 kts | 231° |
| 2026-05-07 15:31 | 51.91130 | -0.59276 | 3005 ft | 192 kts | 231° |
| 2026-05-07 15:31 | 51.90221 | -0.60821 | 3001 ft | 190 kts | 209° |
| 2026-05-07 15:31 | 51.88952 | -0.61273 | 3017 ft | 190 kts | 175° |
| 2026-05-07 15:31 | 51.87657 | -0.60906 | 3030 ft | 183 kts | 167° |
| 2026-05-07 15:32 | 51.86478 | -0.60429 | 3016 ft | 169 kts | 166° |
| 2026-05-07 15:32 | 51.85386 | -0.59806 | 2983 ft | 165 kts | 149° |
| 2026-05-07 15:32 | 51.84558 | -0.58530 | 2927 ft | 166 kts | 123° |
| 2026-05-07 15:32 | 51.84166 | -0.56779 | 2819 ft | 168 kts | 96° |
| 2026-05-07 15:33 | 51.84308 | -0.54949 | 2645 ft | 163 kts | 74° |
| 2026-05-07 15:33 | 51.84616 | -0.53204 | 2449 ft | 157 kts | 75° |
| 2026-05-07 15:33 | 51.84912 | -0.51518 | 2248 ft | 155 kts | 76° |
| 2026-05-07 15:33 | 51.85209 | -0.49818 | 2031 ft | 153 kts | 75° |
| 2026-05-07 15:34 | 51.85493 | -0.48191 | 1835 ft | 152 kts | 75° |
| 2026-05-07 15:34 | 51.85779 | -0.46550 | 1647 ft | 151 kts | 75° |
| 2026-05-07 15:34 | 51.86063 | -0.44915 | 1411 ft | 149 kts | 76° |
| 2026-05-07 15:34 | 51.86344 | -0.43310 | 1210 ft | 147 kts | 75° |
| 2026-05-07 15:35 | 51.86617 | -0.41736 | 1006 ft | 144 kts | 75° |
| 2026-05-07 15:35 | 51.86886 | -0.40183 | 812 ft | 143 kts | 75° |
| 2026-05-07 15:35 | 51.87154 | -0.38647 | 585 ft | 140 kts | 75° |
| 2026-05-07 15:35 | 51.87402 | -0.37199 | 521 ft | 118 kts | 75° |
| 2026-05-07 15:36 | 51.87564 | -0.36251 | 520 ft | 42 kts | 75° |
| 2026-05-07 15:36 | 51.87632 | -0.35942 | 516 ft | 17 kts | 42° |
| 2026-05-07 15:36 | 51.87731 | -0.35950 | 516 ft | 11 kts | 342° |
| 2026-05-07 15:36 | 51.87783 | -0.36024 | 517 ft | 8 kts | 294° |
| 2026-05-07 15:37 | 51.87778 | -0.36114 | 518 ft | 10 kts | 255° |
| 2026-05-07 15:37 | 51.87752 | -0.36265 | 518 ft | 19 kts | 252° |
| 2026-05-07 15:37 | 51.87706 | -0.36527 | 520 ft | 27 kts | 254° |
| 2026-05-07 15:37 | 51.87660 | -0.36798 | 524 ft | 26 kts | 255° |
| 2026-05-07 15:38 | 51.87630 | -0.36984 | 522 ft | 27 kts | 253° |
| 2026-05-07 15:38 | 51.87581 | -0.37253 | 522 ft | 21 kts | 255° |
| 2026-05-07 15:38 | 51.87626 | -0.37454 | 523 ft | 20 kts | 329° |
| 2026-05-07 15:38 | 51.87722 | -0.37639 | 519 ft | 24 kts | 295° |
| 2026-05-07 15:39 | 51.87772 | -0.37821 | 523 ft | 14 kts | 295° |
| 2026-05-07 15:39 | 51.87827 | -0.37966 | 523 ft | 16 kts | 316° |
| 2026-05-07 15:39 | 51.87878 | -0.37982 | 523 ft | 4 kts | 45° |
| 2026-05-07 15:39 | 51.87885 | -0.37940 | 523 ft | 4 kts | 73° |
| 2026-05-07 15:40 | 51.87888 | -0.37922 | 523 ft | 0 kts | 74° |